createdAt,value
2022-08-27T00:00:40.902Z,20.79
2022-08-27T00:01:40.929Z,20.73
2022-08-27T00:02:40.890Z,20.75
2022-08-27T00:03:40.885Z,20.78
2022-08-27T00:04:40.997Z,20.87
2022-08-27T00:05:40.875Z,20.90
2022-08-27T00:06:40.869Z,20.93
2022-08-27T00:07:40.878Z,20.94
2022-08-27T00:08:40.857Z,20.93
2022-08-27T00:09:40.856Z,20.91
2022-08-27T00:10:40.845Z,20.93
2022-08-27T00:11:40.840Z,20.93
2022-08-27T00:12:40.835Z,20.97
2022-08-27T00:13:40.836Z,20.93
2022-08-27T00:14:40.822Z,20.96
2022-08-27T00:15:40.818Z,20.93
2022-08-27T00:16:40.863Z,20.85
2022-08-27T00:17:40.808Z,20.81
2022-08-27T00:18:40.798Z,20.82
2022-08-27T00:19:40.796Z,20.82
2022-08-27T00:20:40.791Z,20.82
2022-08-27T00:21:40.786Z,20.81
2022-08-27T00:22:40.776Z,20.83
2022-08-27T00:23:40.773Z,20.81
2022-08-27T00:24:48.446Z,20.73
2022-08-27T00:25:40.763Z,20.73
2022-08-27T00:26:43.368Z,20.75
2022-08-27T00:27:40.753Z,20.64
2022-08-27T00:28:40.743Z,20.66
2022-08-27T00:29:40.741Z,20.71
2022-08-27T00:30:40.733Z,20.73
2022-08-27T00:31:40.767Z,20.64
2022-08-27T00:32:40.720Z,20.68
2022-08-27T00:33:40.719Z,20.69
2022-08-27T00:34:40.710Z,20.58
2022-08-27T00:35:40.704Z,20.64
2022-08-27T00:36:40.697Z,20.51
2022-08-27T00:37:40.704Z,20.53
2022-08-27T00:38:40.686Z,20.50
2022-08-27T00:39:40.682Z,20.48
2022-08-27T00:40:40.675Z,20.54
2022-08-27T00:41:40.670Z,20.51
2022-08-27T00:42:40.664Z,20.56
2022-08-27T00:43:40.660Z,20.51
2022-08-27T00:44:40.664Z,20.57
2022-08-27T00:45:40.758Z,20.64
2022-08-27T00:46:40.640Z,20.61
2022-08-27T00:47:40.634Z,20.48
2022-08-27T00:48:40.628Z,20.46
2022-08-27T00:49:40.624Z,20.50
2022-08-27T00:50:40.617Z,20.46
2022-08-27T00:51:40.613Z,20.50
2022-08-27T00:52:40.606Z,20.53
2022-08-27T00:53:40.604Z,20.51
2022-08-27T00:54:40.593Z,20.51
2022-08-27T00:55:40.591Z,20.53
2022-08-27T00:56:40.581Z,20.46
2022-08-27T00:57:40.580Z,20.50
2022-08-27T00:58:40.572Z,20.53
2022-08-27T00:59:40.567Z,20.57
2022-08-27T01:00:40.604Z,20.51
2022-08-27T01:01:40.556Z,20.53
2022-08-27T01:02:40.648Z,20.56
2022-08-27T01:03:40.544Z,20.48
2022-08-27T01:04:40.537Z,20.53
2022-08-27T01:05:40.533Z,20.53
2022-08-27T01:06:40.523Z,20.53
2022-08-27T01:07:40.521Z,20.44
2022-08-27T01:08:40.517Z,20.51
2022-08-27T01:09:40.509Z,20.51
2022-08-27T01:10:40.502Z,20.50
2022-08-27T01:11:40.497Z,20.57
2022-08-27T01:12:40.491Z,20.46
2022-08-27T01:13:59.071Z,20.61
2022-08-27T01:14:40.479Z,20.66
2022-08-27T01:15:40.476Z,20.64
2022-08-27T01:16:40.529Z,20.63
2022-08-27T01:17:40.463Z,20.75
2022-08-27T01:18:40.455Z,20.66
2022-08-27T01:19:40.452Z,20.71
2022-08-27T01:20:40.445Z,20.68
2022-08-27T01:21:40.444Z,20.76
2022-08-27T01:22:40.433Z,20.73
2022-08-27T01:23:40.430Z,20.79
2022-08-27T01:24:40.422Z,20.66
2022-08-27T01:25:40.418Z,20.68
2022-08-27T01:26:40.408Z,20.73
2022-08-27T01:27:40.406Z,20.76
2022-08-27T01:28:40.497Z,20.71
2022-08-27T01:29:40.395Z,20.61
2022-08-27T01:30:40.386Z,20.63
2022-08-27T01:31:40.462Z,20.66
2022-08-27T01:32:40.374Z,20.60
2022-08-27T01:33:40.374Z,20.63
2022-08-27T01:34:40.364Z,20.56
2022-08-27T01:35:40.364Z,20.64
2022-08-27T01:36:40.352Z,20.56
2022-08-27T01:37:40.350Z,20.63
2022-08-27T01:38:40.341Z,20.60
2022-08-27T01:39:40.777Z,20.63
2022-08-27T01:40:40.376Z,20.66
2022-08-27T01:41:40.327Z,20.56
2022-08-27T01:42:40.318Z,20.63
2022-08-27T01:43:40.321Z,20.56
2022-08-27T01:44:40.309Z,20.60
2022-08-27T01:45:40.303Z,20.51
2022-08-27T01:46:40.361Z,20.51
2022-08-27T01:47:40.492Z,20.53
2022-08-27T01:48:40.283Z,20.60
2022-08-27T01:49:40.282Z,20.64
2022-08-27T01:50:40.271Z,20.54
2022-08-27T01:51:40.268Z,20.60
2022-08-27T01:52:40.260Z,20.56
2022-08-27T01:53:40.256Z,20.50
2022-08-27T01:54:40.248Z,20.50
2022-08-27T01:55:40.245Z,20.53
2022-08-27T01:56:40.237Z,20.53
2022-08-27T01:57:40.234Z,20.50
2022-08-27T01:58:40.227Z,20.51
2022-08-27T01:59:40.236Z,20.57
2022-08-27T02:00:40.282Z,20.46
2022-08-27T02:01:40.271Z,20.51
2022-08-27T02:02:40.208Z,20.46
2022-08-27T02:03:40.200Z,20.48
2022-08-27T02:04:40.192Z,20.48
2022-08-27T02:05:45.018Z,20.44
2022-08-27T02:06:40.179Z,20.53
2022-08-27T02:07:40.177Z,20.44
2022-08-27T02:08:40.168Z,20.46
2022-08-27T02:09:40.166Z,20.38
2022-08-27T02:10:40.157Z,20.31
2022-08-27T02:11:44.843Z,20.35
2022-08-27T02:12:40.146Z,20.37
2022-08-27T02:13:40.142Z,20.38
2022-08-27T02:14:40.135Z,20.35
2022-08-27T02:15:40.131Z,20.31
2022-08-27T02:16:41.295Z,20.37
2022-08-27T02:17:40.121Z,20.33
2022-08-27T02:18:41.675Z,20.33
2022-08-27T02:19:40.108Z,20.35
2022-08-27T02:20:40.100Z,20.33
2022-08-27T02:21:40.100Z,20.38
2022-08-27T02:22:40.094Z,20.41
2022-08-27T02:23:40.085Z,20.50
2022-08-27T02:24:40.081Z,20.51
2022-08-27T02:25:40.075Z,20.50
2022-08-27T02:26:40.065Z,20.61
2022-08-27T02:27:40.062Z,20.53
2022-08-27T02:28:40.055Z,20.56
2022-08-27T02:29:40.053Z,20.61
2022-08-27T02:30:40.042Z,20.60
2022-08-27T02:31:40.067Z,20.56
2022-08-27T02:32:40.132Z,20.58
2022-08-27T02:33:40.028Z,20.48
2022-08-27T02:34:40.020Z,20.66
2022-08-27T02:35:40.015Z,20.64
2022-08-27T02:36:40.009Z,20.68
2022-08-27T02:37:40.006Z,20.73
2022-08-27T02:38:39.997Z,20.78
2022-08-27T02:39:44.237Z,20.83
2022-08-27T02:40:39.987Z,20.81
2022-08-27T02:41:39.982Z,20.87
2022-08-27T02:42:39.975Z,20.87
2022-08-27T02:43:39.971Z,20.87
2022-08-27T02:44:39.963Z,20.91
2022-08-27T02:45:39.958Z,20.78
2022-08-27T02:46:40.004Z,20.75
2022-08-27T02:47:40.049Z,20.78
2022-08-27T02:48:39.940Z,20.64
2022-08-27T02:49:39.937Z,20.63
2022-08-27T02:50:39.927Z,20.61
2022-08-27T02:51:39.924Z,20.56
2022-08-27T02:52:39.916Z,20.48
2022-08-27T02:53:39.914Z,20.46
2022-08-27T02:54:39.904Z,20.48
2022-08-27T02:55:39.900Z,20.48
2022-08-27T02:56:39.894Z,20.40
2022-08-27T02:57:39.890Z,20.40
2022-08-27T02:58:39.883Z,20.34
2022-08-27T02:59:39.877Z,20.34
2022-08-27T03:00:39.871Z,20.33
2022-08-27T03:01:40.001Z,20.31
2022-08-27T03:02:40.022Z,20.37
2022-08-27T03:03:39.854Z,20.31
2022-08-27T03:04:39.847Z,20.35
2022-08-27T03:05:39.843Z,20.35
2022-08-27T03:06:39.843Z,20.30
2022-08-27T03:07:39.831Z,20.31
2022-08-27T03:08:52.661Z,20.37
2022-08-27T03:09:39.820Z,20.41
2022-08-27T03:10:39.812Z,20.44
2022-08-27T03:11:39.809Z,20.50
2022-08-27T03:12:39.801Z,20.53
2022-08-27T03:13:39.797Z,20.54
2022-08-27T03:14:39.788Z,20.58
2022-08-27T03:15:39.838Z,20.56
2022-08-27T03:16:39.777Z,20.54
2022-08-27T03:17:39.774Z,20.64
2022-08-27T03:18:39.766Z,20.64
2022-08-27T03:19:39.762Z,20.58
2022-08-27T03:20:39.755Z,20.66
2022-08-27T03:21:39.752Z,20.64
2022-08-27T03:22:39.742Z,20.58
2022-08-27T03:23:39.740Z,20.64
2022-08-27T03:24:39.731Z,20.66
2022-08-27T03:25:39.727Z,20.63
2022-08-27T03:26:39.721Z,20.57
2022-08-27T03:27:39.716Z,20.61
2022-08-27T03:28:39.707Z,20.63
2022-08-27T03:29:39.704Z,20.56
2022-08-27T03:30:39.700Z,20.56
2022-08-27T03:31:39.757Z,20.44
2022-08-27T03:32:39.684Z,20.56
2022-08-27T03:33:39.681Z,20.48
2022-08-27T03:34:39.673Z,20.50
2022-08-27T03:35:39.669Z,20.51
2022-08-27T03:36:39.662Z,20.56
2022-08-27T03:37:39.658Z,20.56
2022-08-27T03:38:39.648Z,20.56
2022-08-27T03:39:39.644Z,20.56
2022-08-27T03:40:39.641Z,20.51
2022-08-27T03:41:54.197Z,20.60
2022-08-27T03:42:39.629Z,20.48
2022-08-27T03:43:39.621Z,20.48
2022-08-27T03:44:39.616Z,20.44
2022-08-27T03:46:00.315Z,20.37
2022-08-27T03:46:39.617Z,20.34
2022-08-27T03:47:39.596Z,20.33
2022-08-27T03:48:39.591Z,20.37
2022-08-27T03:49:39.587Z,20.25
2022-08-27T03:50:39.581Z,20.23
2022-08-27T03:51:39.572Z,20.15
2022-08-27T03:52:39.669Z,20.19
2022-08-27T03:53:39.563Z,20.22
2022-08-27T03:54:39.557Z,20.22
2022-08-27T03:55:39.549Z,20.17
2022-08-27T03:56:39.546Z,20.22
2022-08-27T03:57:39.539Z,20.19
2022-08-27T03:58:39.533Z,20.31
2022-08-27T03:59:39.525Z,20.31
2022-08-27T04:00:39.523Z,20.38
2022-08-27T04:01:39.585Z,20.41
2022-08-27T04:02:39.579Z,20.38
2022-08-27T04:03:39.503Z,20.40
2022-08-27T04:04:39.499Z,20.46
2022-08-27T04:05:39.492Z,20.51
2022-08-27T04:06:39.486Z,20.66
2022-08-27T04:07:39.479Z,20.48
2022-08-27T04:08:39.475Z,20.51
2022-08-27T04:09:39.516Z,20.51
2022-08-27T04:10:39.463Z,20.57
2022-08-27T04:11:39.456Z,20.46
2022-08-27T04:12:39.451Z,20.46
2022-08-27T04:13:39.447Z,20.50
2022-08-27T04:14:39.442Z,20.44
2022-08-27T04:15:40.839Z,20.50
2022-08-27T04:16:39.430Z,20.33
2022-08-27T04:17:39.422Z,20.35
2022-08-27T04:18:39.414Z,20.33
2022-08-27T04:19:39.407Z,20.26
2022-08-27T04:20:39.403Z,20.20
2022-08-27T04:21:39.395Z,20.16
2022-08-27T04:22:39.390Z,20.15
2022-08-27T04:23:39.392Z,20.16
2022-08-27T04:24:39.378Z,19.97
2022-08-27T04:25:39.371Z,20.04
2022-08-27T04:26:39.365Z,20.04
2022-08-27T04:27:39.362Z,20.02
2022-08-27T04:28:39.355Z,19.95
2022-08-27T04:29:39.846Z,19.94
2022-08-27T04:30:39.356Z,19.95
2022-08-27T04:31:39.380Z,19.98
2022-08-27T04:32:39.330Z,19.92
2022-08-27T04:33:39.322Z,19.85
2022-08-27T04:34:39.317Z,19.89
2022-08-27T04:35:39.309Z,19.86
2022-08-27T04:36:39.304Z,19.89
2022-08-27T04:37:39.297Z,19.90
2022-08-27T04:38:39.292Z,19.85
2022-08-27T04:39:39.284Z,19.87
2022-08-27T04:40:39.282Z,19.87
2022-08-27T04:41:39.275Z,19.89
2022-08-27T04:42:39.269Z,19.94
2022-08-27T04:43:39.261Z,19.92
2022-08-27T04:44:39.257Z,19.90
2022-08-27T04:45:39.249Z,19.90
2022-08-27T04:46:39.348Z,19.97
2022-08-27T04:47:39.237Z,19.95
2022-08-27T04:48:39.234Z,19.92
2022-08-27T04:49:39.226Z,19.94
2022-08-27T04:50:39.220Z,19.94
2022-08-27T04:51:39.371Z,20.00
2022-08-27T04:52:41.043Z,20.07
2022-08-27T04:53:39.200Z,20.08
2022-08-27T04:54:39.196Z,20.04
2022-08-27T04:55:39.188Z,19.98
2022-08-27T04:56:39.301Z,20.08
2022-08-27T04:57:39.179Z,20.02
2022-08-27T04:58:39.171Z,20.02
2022-08-27T04:59:39.162Z,20.04
2022-08-27T05:00:39.159Z,20.02
2022-08-27T05:01:39.184Z,20.00
2022-08-27T05:02:39.147Z,20.02
2022-08-27T05:03:39.139Z,20.08
2022-08-27T05:04:39.135Z,20.10
2022-08-27T05:05:42.725Z,20.01
2022-08-27T05:06:39.121Z,20.12
2022-08-27T05:07:39.115Z,20.00
2022-08-27T05:08:39.111Z,19.98
2022-08-27T05:09:39.102Z,20.05
2022-08-27T05:10:39.116Z,20.08
2022-08-27T05:11:39.089Z,20.12
2022-08-27T05:12:39.087Z,20.10
2022-08-27T05:13:39.079Z,20.05
2022-08-27T05:14:39.074Z,20.07
2022-08-27T05:15:39.127Z,20.12
2022-08-27T05:16:39.077Z,20.08
2022-08-27T05:17:39.055Z,20.15
2022-08-27T05:18:42.361Z,20.13
2022-08-27T05:19:39.041Z,20.12
2022-08-27T05:20:39.037Z,20.19
2022-08-27T05:21:39.034Z,20.17
2022-08-27T05:22:39.026Z,20.16
2022-08-27T05:23:39.019Z,20.23
2022-08-27T05:24:39.014Z,20.26
2022-08-27T05:25:39.009Z,20.35
2022-08-27T05:26:39.002Z,20.37
2022-08-27T05:27:38.995Z,20.37
2022-08-27T05:28:38.991Z,20.50
2022-08-27T05:29:38.981Z,20.44
2022-08-27T05:30:39.038Z,20.58
2022-08-27T05:31:39.067Z,20.51
2022-08-27T05:32:38.966Z,20.61
2022-08-27T05:33:38.959Z,20.60
2022-08-27T05:34:38.956Z,20.61
2022-08-27T05:35:38.947Z,20.61
2022-08-27T05:36:38.943Z,20.50
2022-08-27T05:37:38.936Z,20.60
2022-08-27T05:38:38.930Z,20.58
2022-08-27T05:39:38.923Z,20.63
2022-08-27T05:40:38.919Z,20.64
2022-08-27T05:41:38.911Z,20.57
2022-08-27T05:42:38.909Z,20.63
2022-08-27T05:43:38.899Z,20.68
2022-08-27T05:44:41.319Z,20.72
2022-08-27T05:45:38.888Z,20.68
2022-08-27T05:46:38.987Z,20.58
2022-08-27T05:47:44.520Z,20.64
2022-08-27T05:48:38.872Z,20.64
2022-08-27T05:49:38.867Z,20.56
2022-08-27T05:50:38.859Z,20.61
2022-08-27T05:52:38.852Z,20.48
2022-08-27T05:53:38.898Z,20.51
2022-08-27T05:54:38.857Z,20.61
2022-08-27T05:55:38.838Z,20.51
2022-08-27T05:56:38.826Z,20.53
2022-08-27T05:57:38.819Z,20.51
2022-08-27T05:58:38.812Z,20.46
2022-08-27T05:59:38.814Z,20.50
2022-08-27T06:00:38.802Z,20.56
2022-08-27T06:01:38.796Z,20.60
2022-08-27T06:02:38.852Z,20.60
2022-08-27T06:03:38.787Z,20.64
2022-08-27T06:04:38.775Z,20.57
2022-08-27T06:05:38.844Z,20.66
2022-08-27T06:06:38.764Z,20.63
2022-08-27T06:07:38.760Z,20.58
2022-08-27T06:08:38.755Z,20.68
2022-08-27T06:09:38.750Z,20.73
2022-08-27T06:10:38.742Z,20.72
2022-08-27T06:11:38.737Z,20.85
2022-08-27T06:12:38.730Z,20.82
2022-08-27T06:13:38.727Z,20.82
2022-08-27T06:14:38.735Z,21.01
2022-08-27T06:15:38.772Z,20.97
2022-08-27T06:16:38.709Z,21.00
2022-08-27T06:17:38.705Z,21.11
2022-08-27T06:18:38.697Z,21.05
2022-08-27T06:19:38.694Z,21.18
2022-08-27T06:20:38.685Z,21.12
2022-08-27T06:21:38.682Z,21.24
2022-08-27T06:22:38.674Z,21.22
2022-08-27T06:23:38.669Z,21.19
2022-08-27T06:24:38.664Z,21.15
2022-08-27T06:25:38.660Z,21.26
2022-08-27T06:26:38.651Z,21.34
2022-08-27T06:27:38.649Z,21.33
2022-08-27T06:28:38.653Z,21.31
2022-08-27T06:29:38.637Z,21.37
2022-08-27T06:30:38.671Z,21.37
2022-08-27T06:31:38.744Z,21.37
2022-08-27T06:32:38.619Z,21.36
2022-08-27T06:33:38.617Z,21.40
2022-08-27T06:34:38.608Z,21.38
2022-08-27T06:35:38.603Z,21.34
2022-08-27T06:36:38.605Z,21.40
2022-08-27T06:37:38.650Z,21.43
2022-08-27T06:38:38.588Z,21.49
2022-08-27T06:39:38.583Z,21.42
2022-08-27T06:40:38.628Z,21.53
2022-08-27T06:41:38.574Z,21.59
2022-08-27T06:42:38.565Z,21.61
2022-08-27T06:43:38.561Z,21.66
2022-08-27T06:44:38.555Z,21.68
2022-08-27T06:45:38.555Z,21.66
2022-08-27T06:46:38.659Z,21.75
2022-08-27T06:47:38.540Z,21.71
2022-08-27T06:48:38.534Z,21.74
2022-08-27T06:49:38.630Z,21.77
2022-08-27T06:50:38.530Z,21.79
2022-08-27T06:51:38.519Z,21.89
2022-08-27T06:52:38.512Z,21.90
2022-08-27T06:53:38.508Z,21.89
2022-08-27T06:54:38.507Z,21.99
2022-08-27T06:55:38.501Z,21.98
2022-08-27T06:56:38.493Z,21.99
2022-08-27T06:57:38.490Z,22.06
2022-08-27T06:58:38.484Z,22.15
2022-08-27T06:59:38.830Z,22.19
2022-08-27T07:00:38.474Z,22.36
2022-08-27T07:01:38.583Z,22.42
2022-08-27T07:02:38.482Z,22.38
2022-08-27T07:03:38.460Z,22.45
2022-08-27T07:04:38.456Z,22.48
2022-08-27T07:05:38.449Z,22.51
2022-08-27T07:06:38.444Z,22.54
2022-08-27T07:07:44.200Z,22.61
2022-08-27T07:08:38.437Z,22.63
2022-08-27T07:09:38.431Z,22.66
2022-08-27T07:10:38.424Z,22.63
2022-08-27T07:11:38.423Z,22.72
2022-08-27T07:12:38.415Z,22.88
2022-08-27T07:13:38.414Z,22.88
2022-08-27T07:14:38.608Z,22.99
2022-08-27T07:15:38.457Z,23.00
2022-08-27T07:16:38.855Z,23.11
2022-08-27T07:17:38.394Z,23.21
2022-08-27T07:18:38.387Z,23.18
2022-08-27T07:19:41.156Z,23.07
2022-08-27T07:20:38.378Z,23.26
2022-08-27T07:21:38.377Z,23.25
2022-08-27T07:22:38.370Z,23.25
2022-08-27T07:23:38.369Z,23.26
2022-08-27T07:24:38.363Z,23.25
2022-08-27T07:25:38.358Z,23.25
2022-08-27T07:26:38.351Z,23.25
2022-08-27T07:27:38.351Z,23.21
2022-08-27T07:28:38.344Z,23.01
2022-08-27T07:29:38.342Z,22.86
2022-08-27T07:30:38.351Z,22.81
2022-08-27T07:31:38.332Z,22.70
2022-08-27T07:32:38.326Z,22.66
2022-08-27T07:33:38.325Z,22.75
2022-08-27T07:34:38.316Z,22.78
2022-08-27T07:35:38.315Z,22.81
2022-08-27T07:36:38.309Z,22.84
2022-08-27T07:37:38.358Z,22.85
2022-08-27T07:38:38.299Z,23.00
2022-08-27T07:39:38.299Z,23.04
2022-08-27T07:40:38.340Z,23.09
2022-08-27T07:41:38.291Z,23.19
2022-08-27T07:42:38.283Z,23.26
2022-08-27T07:43:38.281Z,23.23
2022-08-27T07:44:38.281Z,23.25
2022-08-27T07:45:38.314Z,23.18
2022-08-27T07:46:40.533Z,23.18
2022-08-27T07:47:38.265Z,23.29
2022-08-27T07:48:38.259Z,23.31
2022-08-27T07:49:38.256Z,23.29
2022-08-27T07:50:38.251Z,23.22
2022-08-27T07:51:38.251Z,23.19
2022-08-27T07:52:38.243Z,23.21
2022-08-27T07:53:38.241Z,23.29
2022-08-27T07:54:38.242Z,23.26
2022-08-27T07:55:38.232Z,23.25
2022-08-27T07:56:38.229Z,23.35
2022-08-27T07:57:38.221Z,23.37
2022-08-27T07:58:38.220Z,23.35
2022-08-27T07:59:38.214Z,23.35
2022-08-27T08:00:38.211Z,23.42
2022-08-27T08:01:38.376Z,23.37
2022-08-27T08:02:38.214Z,23.38
2022-08-27T08:03:38.198Z,23.52
2022-08-27T08:04:38.195Z,23.52
2022-08-27T08:05:38.190Z,23.50
2022-08-27T08:06:38.187Z,23.49
2022-08-27T08:07:38.181Z,23.50
2022-08-27T08:08:39.453Z,23.47
2022-08-27T08:09:38.179Z,23.50
2022-08-27T08:10:38.171Z,23.49
2022-08-27T08:11:38.166Z,23.52
2022-08-27T08:12:38.164Z,23.53
2022-08-27T08:13:38.158Z,23.52
2022-08-27T08:14:38.156Z,23.50
2022-08-27T08:15:38.150Z,23.56
2022-08-27T08:16:38.186Z,23.56
2022-08-27T08:17:38.143Z,23.62
2022-08-27T08:18:38.154Z,23.62
2022-08-27T08:19:38.133Z,23.64
2022-08-27T08:20:57.086Z,23.68
2022-08-27T08:21:38.134Z,23.60
2022-08-27T08:22:38.130Z,23.71
2022-08-27T08:23:38.120Z,23.79
2022-08-27T08:24:38.119Z,23.79
2022-08-27T08:25:38.589Z,23.81
2022-08-27T08:26:38.111Z,23.79
2022-08-27T08:27:38.104Z,23.89
2022-08-27T08:28:38.102Z,23.89
2022-08-27T08:29:38.097Z,23.92
2022-08-27T08:30:38.139Z,23.82
2022-08-27T08:31:38.090Z,23.86
2022-08-27T08:32:38.088Z,23.87
2022-08-27T08:33:38.083Z,23.87
2022-08-27T08:34:38.083Z,23.84
2022-08-27T08:35:40.944Z,23.82
2022-08-27T08:36:38.074Z,23.82
2022-08-27T08:37:38.069Z,23.87
2022-08-27T08:38:38.066Z,23.93
2022-08-27T08:39:38.060Z,23.92
2022-08-27T08:40:38.162Z,23.92
2022-08-27T08:41:38.055Z,23.90
2022-08-27T08:42:38.053Z,23.84
2022-08-27T08:43:38.046Z,23.86
2022-08-27T08:44:38.045Z,23.87
2022-08-27T08:45:38.065Z,23.90
2022-08-27T08:46:38.040Z,23.92
2022-08-27T08:47:38.032Z,24.02
2022-08-27T08:48:38.032Z,24.02
2022-08-27T08:49:38.026Z,24.02
2022-08-27T08:50:38.024Z,24.00
2022-08-27T08:51:38.020Z,24.00
2022-08-27T08:52:38.017Z,23.96
2022-08-27T08:53:38.012Z,23.94
2022-08-27T08:54:38.010Z,23.90
2022-08-27T08:55:38.005Z,23.87
2022-08-27T08:56:38.006Z,23.90
2022-08-27T08:57:37.997Z,23.82
2022-08-27T08:58:37.996Z,23.89
2022-08-27T08:59:37.991Z,23.84
2022-08-27T09:00:37.989Z,23.82
2022-08-27T09:01:38.133Z,23.82
2022-08-27T09:02:37.988Z,23.86
2022-08-27T09:03:38.022Z,23.90
2022-08-27T09:04:37.977Z,23.90
2022-08-27T09:05:37.971Z,23.82
2022-08-27T09:06:37.969Z,23.84
2022-08-27T09:07:37.964Z,23.81
2022-08-27T09:08:41.606Z,23.90
2022-08-27T09:09:37.956Z,23.90
2022-08-27T09:10:37.954Z,23.82
2022-08-27T09:11:37.950Z,23.96
2022-08-27T09:12:37.948Z,23.86
2022-08-27T09:13:37.943Z,23.72
2022-08-27T09:14:37.940Z,23.63
2022-08-27T09:15:37.938Z,23.72
2022-08-27T09:16:37.965Z,23.60
2022-08-27T09:17:37.929Z,23.62
2022-08-27T09:18:37.955Z,23.62
2022-08-27T09:19:37.921Z,23.63
2022-08-27T09:20:37.921Z,23.64
2022-08-27T09:21:37.917Z,23.69
2022-08-27T09:22:37.913Z,23.71
2022-08-27T09:23:37.908Z,23.86
2022-08-27T09:24:37.906Z,23.90
2022-08-27T09:25:37.901Z,24.00
2022-08-27T09:26:37.901Z,24.05
2022-08-27T09:27:37.893Z,24.11
2022-08-27T09:28:37.893Z,24.09
2022-08-27T09:29:37.887Z,24.19
2022-08-27T09:30:37.918Z,24.09
2022-08-27T09:31:37.881Z,24.15
2022-08-27T09:32:37.979Z,24.33
2022-08-27T09:33:44.594Z,24.30
2022-08-27T09:34:37.872Z,24.26
2022-08-27T09:35:37.865Z,24.31
2022-08-27T09:36:37.865Z,24.27
2022-08-27T09:37:37.861Z,24.26
2022-08-27T09:38:37.858Z,24.30
2022-08-27T09:39:37.853Z,24.29
2022-08-27T09:40:37.896Z,24.33
2022-08-27T09:41:37.850Z,24.24
2022-08-27T09:42:37.846Z,24.37
2022-08-27T09:43:37.843Z,24.34
2022-08-27T09:44:37.840Z,24.44
2022-08-27T09:45:37.926Z,24.42
2022-08-27T09:46:37.834Z,24.44
2022-08-27T09:47:37.828Z,24.45
2022-08-27T09:48:37.829Z,24.52
2022-08-27T09:49:37.821Z,24.44
2022-08-27T09:50:42.950Z,24.46
2022-08-27T09:51:37.827Z,24.39
2022-08-27T09:52:38.137Z,24.34
2022-08-27T09:53:37.809Z,24.45
2022-08-27T09:54:37.808Z,24.37
2022-08-27T09:55:37.802Z,24.49
2022-08-27T09:56:37.801Z,24.52
2022-08-27T09:57:37.794Z,24.59
2022-08-27T09:58:37.795Z,24.68
2022-08-27T09:59:37.790Z,24.75
2022-08-27T10:00:37.788Z,24.86
2022-08-27T10:01:37.874Z,24.92
2022-08-27T10:02:37.782Z,24.97
2022-08-27T10:03:37.821Z,25.07
2022-08-27T10:04:38.104Z,25.11
2022-08-27T10:05:37.772Z,25.22
2022-08-27T10:06:37.770Z,25.27
2022-08-27T10:07:37.765Z,25.23
2022-08-27T10:08:37.766Z,25.27
2022-08-27T10:09:37.760Z,25.31
2022-08-27T10:10:37.758Z,25.48
2022-08-27T10:11:37.755Z,25.48
2022-08-27T10:12:37.754Z,25.44
2022-08-27T10:13:37.754Z,25.48
2022-08-27T10:14:37.950Z,25.48
2022-08-27T10:15:43.191Z,25.59
2022-08-27T10:16:37.820Z,25.56
2022-08-27T10:17:37.739Z,25.63
2022-08-27T10:18:37.738Z,25.72
2022-08-27T10:19:37.736Z,25.66
2022-08-27T10:20:37.737Z,25.69
2022-08-27T10:21:37.729Z,25.82
2022-08-27T10:22:37.729Z,25.85
2022-08-27T10:23:37.725Z,26.00
2022-08-27T10:24:37.724Z,26.06
2022-08-27T10:25:37.720Z,26.01
2022-08-27T10:26:37.718Z,26.04
2022-08-27T10:27:37.715Z,26.08
2022-08-27T10:28:37.714Z,26.16
2022-08-27T10:29:37.711Z,26.20
2022-08-27T10:30:37.710Z,26.17
2022-08-27T10:31:37.761Z,26.16
2022-08-27T10:32:37.707Z,26.27
2022-08-27T10:33:37.703Z,26.32
2022-08-27T10:34:37.701Z,26.31
2022-08-27T10:35:40.631Z,26.36
2022-08-27T10:36:37.712Z,26.36
2022-08-27T10:37:40.479Z,26.38
2022-08-27T10:38:42.446Z,26.42
2022-08-27T10:39:37.690Z,26.36
2022-08-27T10:40:37.810Z,26.35
2022-08-27T10:41:37.687Z,26.46
2022-08-27T10:42:37.687Z,26.34
2022-08-27T10:43:37.684Z,26.31
2022-08-27T10:44:37.684Z,26.42
2022-08-27T10:45:37.759Z,26.38
2022-08-27T10:46:37.680Z,26.34
2022-08-27T10:47:37.675Z,26.39
2022-08-27T10:48:37.679Z,26.44
2022-08-27T10:49:37.673Z,26.34
2022-08-27T10:50:37.672Z,26.47
2022-08-27T10:51:37.670Z,26.41
2022-08-27T10:52:37.668Z,26.39
2022-08-27T10:53:37.666Z,26.49
2022-08-27T10:54:37.666Z,26.38
2022-08-27T10:55:37.662Z,26.46
2022-08-27T10:56:37.665Z,26.35
2022-08-27T10:57:55.182Z,26.31
2022-08-27T10:58:37.659Z,26.21
2022-08-27T10:59:37.657Z,26.19
2022-08-27T11:00:37.702Z,26.21
2022-08-27T11:01:37.651Z,26.21
2022-08-27T11:02:37.741Z,26.21
2022-08-27T11:03:37.649Z,26.20
2022-08-27T11:04:37.649Z,26.17
2022-08-27T11:05:37.646Z,26.19
2022-08-27T11:06:37.646Z,26.11
2022-08-27T11:07:37.642Z,26.12
2022-08-27T11:08:37.644Z,26.09
2022-08-27T11:09:37.640Z,26.06
2022-08-27T11:10:37.638Z,26.20
2022-08-27T11:12:37.636Z,26.29
2022-08-27T11:13:37.633Z,26.34
2022-08-27T11:14:37.637Z,26.32
2022-08-27T11:15:37.627Z,26.28
2022-08-27T11:16:39.541Z,26.32
2022-08-27T11:17:37.628Z,26.38
2022-08-27T11:18:37.625Z,26.35
2022-08-27T11:19:37.622Z,26.36
2022-08-27T11:20:37.623Z,26.36
2022-08-27T11:21:37.719Z,26.38
2022-08-27T11:22:37.617Z,26.38
2022-08-27T11:23:37.665Z,26.56
2022-08-27T11:24:37.615Z,26.65
2022-08-27T11:25:37.612Z,26.81
2022-08-27T11:26:37.613Z,26.98
2022-08-27T11:27:37.607Z,26.94
2022-08-27T11:28:37.634Z,27.06
2022-08-27T11:29:37.606Z,27.18
2022-08-27T11:30:37.605Z,27.24
2022-08-27T11:31:37.651Z,27.38
2022-08-27T11:32:37.603Z,27.45
2022-08-27T11:33:37.601Z,27.46
2022-08-27T11:34:37.601Z,27.52
2022-08-27T11:35:37.599Z,27.59
2022-08-27T11:36:37.597Z,27.63
2022-08-27T11:37:37.596Z,27.61
2022-08-27T11:38:37.597Z,27.65
2022-08-27T11:39:37.593Z,27.71
2022-08-27T11:40:37.605Z,27.81
2022-08-27T11:41:44.831Z,27.87
2022-08-27T11:42:37.592Z,27.93
2022-08-27T11:43:37.590Z,27.90
2022-08-27T11:44:37.591Z,27.76
2022-08-27T11:45:37.587Z,27.77
2022-08-27T11:46:37.657Z,27.81
2022-08-27T11:47:38.789Z,27.74
2022-08-27T11:48:37.588Z,27.84
2022-08-27T11:49:37.585Z,27.68
2022-08-27T11:50:37.585Z,27.78
2022-08-27T11:51:37.585Z,27.77
2022-08-27T11:52:37.583Z,27.76
2022-08-27T11:53:51.981Z,27.86
2022-08-27T11:54:37.582Z,27.88
2022-08-27T11:55:37.585Z,27.96
2022-08-27T11:56:37.581Z,28.14
2022-08-27T11:57:37.578Z,28.30
2022-08-27T11:58:53.139Z,28.39
2022-08-27T11:59:37.578Z,28.52
2022-08-27T12:00:37.577Z,28.77
2022-08-27T12:01:37.575Z,28.69
2022-08-27T12:02:37.579Z,28.79
2022-08-27T12:03:37.626Z,28.76
2022-08-27T12:04:37.660Z,28.80
2022-08-27T12:05:37.574Z,28.73
2022-08-27T12:06:37.574Z,28.79
2022-08-27T12:07:37.571Z,28.74
2022-08-27T12:08:37.579Z,28.74
2022-08-27T12:09:37.572Z,28.54
2022-08-27T12:10:37.572Z,28.50
2022-08-27T12:11:37.586Z,28.43
2022-08-27T12:12:37.571Z,28.28
2022-08-27T12:13:37.574Z,28.23
2022-08-27T12:14:37.572Z,28.11
2022-08-27T12:15:37.572Z,27.87
2022-08-27T12:16:37.708Z,27.77
2022-08-27T12:17:37.571Z,27.74
2022-08-27T12:18:37.573Z,27.63
2022-08-27T12:19:37.571Z,27.65
2022-08-27T12:20:37.770Z,27.66
2022-08-27T12:21:37.570Z,27.78
2022-08-27T12:22:39.590Z,27.76
2022-08-27T12:23:37.569Z,27.83
2022-08-27T12:24:37.566Z,27.90
2022-08-27T12:25:37.569Z,27.84
2022-08-27T12:26:37.566Z,27.76
2022-08-27T12:27:37.567Z,27.80
2022-08-27T12:28:37.566Z,27.91
2022-08-27T12:29:37.566Z,27.80
2022-08-27T12:30:37.662Z,27.74
2022-08-27T12:31:37.651Z,27.72
2022-08-27T12:32:37.562Z,27.86
2022-08-27T12:33:37.565Z,27.84
2022-08-27T12:34:37.569Z,27.93
2022-08-27T12:35:37.562Z,28.09
2022-08-27T12:36:37.560Z,28.18
2022-08-27T12:37:37.564Z,28.27
2022-08-27T12:38:37.559Z,28.32
2022-08-27T12:39:37.562Z,28.28
2022-08-27T12:40:37.768Z,28.15
2022-08-27T12:41:43.813Z,28.11
2022-08-27T12:42:37.559Z,27.98
2022-08-27T12:43:37.559Z,27.87
2022-08-27T12:44:37.559Z,27.88
2022-08-27T12:45:37.558Z,27.68
2022-08-27T12:46:37.607Z,27.72
2022-08-27T12:47:37.560Z,27.69
2022-08-27T12:48:37.564Z,27.53
2022-08-27T12:49:39.447Z,27.48
2022-08-27T12:50:37.554Z,27.50
2022-08-27T12:51:37.558Z,27.50
2022-08-27T12:52:37.556Z,27.61
2022-08-27T12:53:37.556Z,27.59
2022-08-27T12:54:37.551Z,27.61